Time;durP1;ratioP1;P1;durP2;ratioP2;P2;SDS_P1;SDS_P2;PMS_P1;PMS_P2;Temp;Humidity;BMP_temperature;BMP_pressure;BME280_temperature;BME280_humidity;BME280_pressure;Samples;Min_cycle;Max_cycle;Signal;HPM_P1;HPM_P2
2021/01/15 00:00:58;;;;;;;7.70;5.73;;;1.50;37.60;;;;;;5013965;28;20408;-73
2021/01/15 00:03:24;;;;;;;10.03;6.10;;;1.40;38.10;;;;;;5014052;28;20924;-73
2021/01/15 00:05:50;;;;;;;7.72;6.00;;;1.20;38.50;;;;;;5011317;28;20398;-72
2021/01/15 00:08:15;;;;;;;10.82;6.00;;;1.10;40.00;;;;;;5013776;28;20401;-72
2021/01/15 00:10:41;;;;;;;10.37;6.13;;;1.10;40.80;;;;;;5013797;28;20412;-72
2021/01/15 00:13:06;;;;;;;11.07;5.90;;;1.10;40.30;;;;;;5008733;28;20752;-73
2021/01/15 00:15:33;;;;;;;7.43;5.60;;;1.10;40.00;;;;;;4998862;28;20828;-74
2021/01/15 00:17:58;;;;;;;10.60;6.70;;;1.20;39.50;;;;;;5013437;28;20490;-74
2021/01/15 00:20:24;;;;;;;10.40;5.97;;;1.20;39.40;;;;;;5012360;28;20445;-72
2021/01/15 00:22:49;;;;;;;10.32;5.50;;;1.00;40.10;;;;;;5014262;28;20388;-72
2021/01/15 00:25:15;;;;;;;12.80;6.93;;;0.70;41.80;;;;;;5016176;28;20396;-73
2021/01/15 00:27:41;;;;;;;12.03;6.50;;;0.70;42.50;;;;;;5018243;28;20412;-73
2021/01/15 00:30:08;;;;;;;9.93;6.72;;;0.80;41.60;;;;;;5017537;28;20403;-74
2021/01/15 00:32:34;;;;;;;11.77;6.70;;;0.60;43.10;;;;;;5021167;28;20524;-74
2021/01/15 00:35:00;;;;;;;10.20;6.60;;;0.60;42.80;;;;;;5021449;28;20409;-73
2021/01/15 00:37:25;;;;;;;9.47;6.43;;;0.30;44.40;;;;;;5021888;28;20389;-74
2021/01/15 00:39:51;;;;;;;10.60;6.70;;;0.10;46.40;;;;;;5018976;28;20896;-74
2021/01/15 00:42:16;;;;;;;8.97;7.00;;;0.00;47.20;;;;;;4999343;28;20426;-74
2021/01/15 00:44:45;;;;;;;10.57;6.80;;;-0.10;48.50;;;;;;4999122;28;20397;-73
2021/01/15 00:47:11;;;;;;;10.40;7.10;;;-0.20;48.70;;;;;;5014167;28;20389;-73
2021/01/15 00:49:37;;;;;;;13.02;7.65;;;-0.20;49.60;;;;;;5014748;28;20500;-73
2021/01/15 00:52:03;;;;;;;11.53;7.93;;;-0.30;49.90;;;;;;5013542;28;20942;-73
2021/01/15 00:54:28;;;;;;;15.63;8.65;;;-0.40;51.00;;;;;;5013082;28;20423;-73
2021/01/15 00:56:58;;;;;;;13.07;7.90;;;-0.40;52.00;;;;;;5012628;28;20412;-73
2021/01/15 00:59:24;;;;;;;10.77;6.85;;;-0.30;51.30;;;;;;5010295;28;20401;-73
2021/01/15 01:01:49;;;;;;;15.40;7.90;;;-0.40;51.70;;;;;;5017601;28;20464;-72
2021/01/15 01:04:15;;;;;;;10.77;7.10;;;-0.50;52.60;;;;;;5017518;28;20401;-74
2021/01/15 01:06:41;;;;;;;8.77;6.80;;;-0.10;53.00;;;;;;5017986;28;20436;-73
2021/01/15 01:09:07;;;;;;;12.82;7.40;;;0.00;50.30;;;;;;5017315;28;20392;-72
2021/01/15 01:11:33;;;;;;;10.80;6.97;;;-0.20;51.30;;;;;;5000730;28;20398;-73
2021/01/15 01:13:59;;;;;;;9.45;6.90;;;0.00;51.40;;;;;;5014763;28;20438;-72
2021/01/15 01:16:25;;;;;;;9.25;6.90;;;0.10;50.50;;;;;;5019141;28;20473;-72
2021/01/15 01:18:52;;;;;;;10.80;7.38;;;0.20;49.00;;;;;;5019317;28;20407;-73
2021/01/15 01:21:17;;;;;;;9.63;7.55;;;0.30;48.70;;;;;;5006429;28;20829;-74
2021/01/15 01:23:43;;;;;;;13.47;6.83;;;0.30;47.60;;;;;;4999032;28;20391;-72
2021/01/15 01:26:10;;;;;;;10.65;7.32;;;0.20;47.90;;;;;;5010871;28;20404;-74
2021/01/15 01:28:36;;;;;;;11.32;7.90;;;0.40;47.80;;;;;;5011961;28;20392;-71
2021/01/15 01:31:02;;;;;;;14.95;7.70;;;0.50;47.60;;;;;;5012651;28;20399;-74
2021/01/15 01:33:27;;;;;;;11.93;7.47;;;0.40;48.00;;;;;;5019252;28;20400;-73
2021/01/15 01:35:53;;;;;;;14.40;8.25;;;0.30;47.70;;;;;;5005118;28;20413;-72
2021/01/15 01:38:19;;;;;;;14.73;8.43;;;0.20;49.40;;;;;;5000229;28;20390;-73
2021/01/15 01:40:45;;;;;;;13.23;7.93;;;0.40;50.00;;;;;;4998651;28;20822;-74
2021/01/15 01:43:11;;;;;;;12.27;8.10;;;0.50;48.90;;;;;;5016862;28;20441;-73
2021/01/15 01:45:37;;;;;;;15.32;9.00;;;0.50;48.70;;;;;;5005241;28;20441;-73
2021/01/15 01:48:04;;;;;;;14.20;9.00;;;0.60;48.80;;;;;;4998376;28;20390;-73
2021/01/15 01:50:31;;;;;;;16.13;9.20;;;0.80;47.50;;;;;;5003569;28;20491;-72
2021/01/15 01:52:59;;;;;;;13.82;8.82;;;0.90;46.70;;;;;;5012919;28;20533;-72
2021/01/15 01:55:27;;;;;;;17.58;9.65;;;1.10;46.50;;;;;;5013814;28;20459;-73
2021/01/15 01:57:53;;;;;;;16.35;9.18;;;1.20;46.10;;;;;;5013997;28;20423;-75
2021/01/15 02:00:18;;;;;;;16.95;10.23;;;1.40;45.10;;;;;;5014218;28;20392;-74
2021/01/15 02:02:44;;;;;;;15.77;9.90;;;1.50;44.60;;;;;;5011706;28;20385;-73
2021/01/15 02:05:10;;;;;;;20.48;11.65;;;1.60;44.30;;;;;;5012120;28;20404;-74
2021/01/15 02:07:36;;;;;;;16.42;10.30;;;1.70;44.30;;;;;;5013162;28;20969;-73
2021/01/15 02:10:30;;;;;;;17.63;11.18;;;1.70;44.30;;;;;;5014475;28;20397;-72
2021/01/15 02:13:37;;;;;;;19.15;11.48;;;1.80;44.60;;;;;;5017477;28;20395;-74
2021/01/15 02:16:08;;;;;;;20.05;11.85;;;1.90;44.40;;;;;;5013862;28;20885;-72
2021/01/15 02:18:41;;;;;;;19.30;11.85;;;2.00;44.00;;;;;;5017562;28;20428;-73
2021/01/15 02:21:25;;;;;;;20.05;11.50;;;2.00;43.90;;;;;;5018388;28;20381;-73
2021/01/15 02:23:57;;;;;;;19.27;11.80;;;2.00;44.20;;;;;;5013898;28;20381;-72
2021/01/15 02:27:06;;;;;;;21.25;12.27;;;2.10;44.00;;;;;;5011403;28;20883;-73
2021/01/15 02:29:33;;;;;;;19.23;12.27;;;2.10;44.40;;;;;;5011473;28;20396;-72
2021/01/15 02:32:17;;;;;;;26.08;13.05;;;2.10;44.80;;;;;;5011195;28;20397;-72
2021/01/15 02:35:01;;;;;;;19.20;12.95;;;2.10;45.60;;;;;;5007277;28;20417;-72
2021/01/15 02:37:56;;;;;;;18.20;12.13;;;2.10;46.30;;;;;;4990436;28;20505;-72
2021/01/15 02:41:02;;;;;;;24.10;13.07;;;2.20;45.70;;;;;;4991474;28;20886;-73
2021/01/15 02:43:31;;;;;;;19.23;12.30;;;2.10;48.10;;;;;;4991754;28;20400;-73
2021/01/15 02:45:59;;;;;;;21.65;12.35;;;2.30;46.00;;;;;;4996065;28;20488;-73
2021/01/15 02:48:29;;;;;;;21.23;12.80;;;2.40;45.30;;;;;;4991589;28;20440;-73
2021/01/15 02:50:55;;;;;;;19.83;12.05;;;2.30;45.70;;;;;;4991322;28;20395;-73
2021/01/15 02:53:21;;;;;;;17.30;11.50;;;2.50;43.80;;;;;;4991527;28;20398;-72
2021/01/15 02:55:46;;;;;;;21.83;13.07;;;2.50;43.50;;;;;;5003624;28;20405;-73
2021/01/15 02:58:13;;;;;;;17.88;11.70;;;2.50;43.60;;;;;;5009352;28;20436;-73
2021/01/15 03:00:40;;;;;;;20.08;11.80;;;2.40;43.90;;;;;;5010176;28;20754;-73
2021/01/15 03:03:27;;;;;;;22.33;12.75;;;2.50;44.50;;;;;;5010835;28;20388;-72
2021/01/15 03:06:12;;;;;;;20.85;12.90;;;2.30;45.10;;;;;;5010788;28;20971;-72
2021/01/15 03:08:40;;;;;;;17.23;12.20;;;2.30;46.00;;;;;;5009724;28;20436;-73
2021/01/15 03:11:06;;;;;;;20.98;12.90;;;2.50;44.40;;;;;;5011482;28;20420;-73
2021/01/15 03:13:34;;;;;;;18.60;11.95;;;2.60;43.70;;;;;;5007675;28;20410;-74
2021/01/15 03:16:02;;;;;;;19.97;12.03;;;2.60;42.60;;;;;;5005780;28;20894;-74
2021/01/15 03:18:30;;;;;;;21.02;12.93;;;2.60;42.10;;;;;;5012187;28;20396;-74
2021/01/15 03:21:01;;;;;;;19.83;11.90;;;2.70;41.70;;;;;;5009612;28;20393;-73
2021/01/15 03:23:28;;;;;;;18.90;12.18;;;2.70;40.40;;;;;;5014873;28;20403;-73
2021/01/15 03:25:55;;;;;;;18.93;11.90;;;2.70;39.80;;;;;;5017737;28;20393;-74
2021/01/15 03:28:21;;;;;;;20.70;12.40;;;2.60;41.70;;;;;;5019301;28;20385;-73
2021/01/15 03:30:46;;;;;;;16.45;11.52;;;2.50;42.60;;;;;;5017181;28;20400;-73
2021/01/15 03:33:12;;;;;;;19.17;11.80;;;2.60;41.80;;;;;;5018853;28;20384;-73
2021/01/15 03:35:37;;;;;;;16.52;11.60;;;2.70;39.90;;;;;;5014028;28;20843;-73
2021/01/15 03:38:08;;;;;;;18.43;11.90;;;2.80;39.30;;;;;;5010084;28;20754;-73
2021/01/15 03:40:36;;;;;;;19.13;11.77;;;2.90;38.20;;;;;;5008935;28;20404;-73
2021/01/15 03:43:22;;;;;;;19.83;11.90;;;3.00;38.20;;;;;;5010195;28;20397;-73
2021/01/15 03:45:49;;;;;;;25.25;12.63;;;3.00;37.20;;;;;;5011009;28;20397;-73
2021/01/15 03:48:16;;;;;;;16.77;11.23;;;3.00;37.50;;;;;;5010931;28;20824;-74
2021/01/15 03:50:43;;;;;;;19.17;12.00;;;3.00;36.90;;;;;;5010316;28;20455;-74
2021/01/15 03:53:09;;;;;;;19.17;11.87;;;3.00;36.90;;;;;;5000936;28;20406;-73
2021/01/15 03:55:35;;;;;;;15.75;11.30;;;3.00;36.90;;;;;;5007267;28;20427;-73
2021/01/15 03:58:00;;;;;;;21.40;12.38;;;3.00;37.20;;;;;;5010020;28;20471;-73
2021/01/15 04:00:26;;;;;;;18.08;11.65;;;3.00;37.60;;;;;;5010208;28;20476;-73
2021/01/15 04:02:52;;;;;;;19.00;12.23;;;3.00;37.40;;;;;;5010800;28;20867;-72
2021/01/15 04:05:17;;;;;;;17.63;11.80;;;3.00;36.80;;;;;;5011829;28;20401;-72
2021/01/15 04:07:43;;;;;;;16.90;11.10;;;3.10;36.50;;;;;;5004741;28;20421;-73
2021/01/15 04:10:12;;;;;;;18.50;11.50;;;3.10;36.50;;;;;;4995136;28;20496;-72
2021/01/15 04:12:38;;;;;;;16.27;11.32;;;3.10;36.00;;;;;;5000915;28;20899;-73
2021/01/15 04:15:09;;;;;;;18.25;11.82;;;3.00;36.20;;;;;;5005942;28;20794;-74
2021/01/15 04:17:35;;;;;;;19.95;12.15;;;2.90;37.00;;;;;;5013815;28;20392;-73
2021/01/15 04:20:01;;;;;;;21.83;12.32;;;2.80;38.30;;;;;;5013611;28;20399;-73
2021/01/15 04:22:35;;;;;;;18.55;11.90;;;2.90;37.90;;;;;;5012886;28;20471;-72
2021/01/15 04:25:01;;;;;;;20.48;12.15;;;3.10;36.60;;;;;;4995856;28;20434;-73
2021/01/15 04:27:30;;;;;;;18.75;12.23;;;3.20;36.30;;;;;;5013510;28;20494;-72
2021/01/15 04:29:56;;;;;;;17.90;12.20;;;3.20;35.60;;;;;;5012648;28;20486;-73
2021/01/15 04:32:23;;;;;;;23.33;13.23;;;3.10;36.50;;;;;;5013965;28;20842;-73
2021/01/15 04:34:49;;;;;;;22.20;12.90;;;2.90;37.50;;;;;;4994149;28;20468;-73
2021/01/15 04:37:14;;;;;;;19.70;12.33;;;2.80;38.00;;;;;;4994340;28;20461;-72
2021/01/15 04:39:40;;;;;;;22.17;12.73;;;2.80;38.60;;;;;;5001478;28;20385;-72
2021/01/15 04:42:06;;;;;;;22.27;12.90;;;2.80;38.60;;;;;;5000680;28;20472;-72
2021/01/15 04:44:32;;;;;;;20.20;12.52;;;2.90;38.10;;;;;;4993773;28;20386;-73
2021/01/15 04:47:01;;;;;;;17.70;12.40;;;3.10;36.80;;;;;;4993874;28;20817;-73
2021/01/15 04:49:29;;;;;;;20.45;13.30;;;3.30;36.20;;;;;;5011902;28;20401;-74
2021/01/15 04:52:02;;;;;;;20.55;13.20;;;3.30;36.30;;;;;;5012682;28;20408;-73
2021/01/15 04:54:36;;;;;;;21.90;13.50;;;3.30;36.10;;;;;;5013207;28;20512;-73
2021/01/15 04:57:07;;;;;;;25.52;13.77;;;3.20;37.10;;;;;;5013275;28;20381;-74
2021/01/15 04:59:38;;;;;;;22.48;13.57;;;3.30;36.80;;;;;;5012849;28;20388;-74
2021/01/15 05:02:08;;;;;;;24.80;15.00;;;3.20;37.50;;;;;;5012335;28;20938;-73
2021/01/15 05:04:34;;;;;;;22.65;15.32;;;3.20;37.90;;;;;;5013419;28;20887;-73
2021/01/15 05:07:03;;;;;;;27.05;15.80;;;3.20;38.90;;;;;;5011853;28;20428;-73
2021/01/15 05:09:38;;;;;;;24.75;15.50;;;3.20;39.10;;;;;;5012779;28;20392;-74
2021/01/15 05:12:07;;;;;;;25.40;16.40;;;3.20;39.30;;;;;;5013047;28;20409;-74
2021/01/15 05:14:34;;;;;;;31.60;16.92;;;3.20;40.00;;;;;;5000830;28;20461;-74
2021/01/15 05:17:04;;;;;;;26.55;16.77;;;3.20;40.70;;;;;;5006348;28;20411;-73
2021/01/15 05:19:31;;;;;;;27.25;17.00;;;3.20;41.00;;;;;;5012763;28;20377;-73
2021/01/15 05:21:57;;;;;;;29.83;16.70;;;3.20;41.00;;;;;;5012612;28;20458;-73
2021/01/15 05:24:23;;;;;;;28.95;17.27;;;3.20;42.20;;;;;;5012697;28;20488;-73
2021/01/15 05:26:48;;;;;;;29.77;17.48;;;3.20;42.30;;;;;;5011855;28;20472;-74
2021/01/15 05:29:15;;;;;;;30.77;16.92;;;3.20;42.60;;;;;;5012366;28;20385;-74
2021/01/15 05:31:54;;;;;;;29.10;17.85;;;3.20;43.10;;;;;;5010726;28;20758;-71
2021/01/15 05:34:21;;;;;;;28.02;17.23;;;3.20;43.40;;;;;;5011836;28;20462;-73
2021/01/15 05:36:47;;;;;;;30.00;18.15;;;3.10;43.80;;;;;;5012069;28;20418;-73
2021/01/15 05:39:20;;;;;;;32.67;17.92;;;3.10;45.10;;;;;;5013273;28;20375;-74
2021/01/15 05:41:48;;;;;;;31.65;18.70;;;3.10;44.80;;;;;;5004721;28;20399;-74
2021/01/15 05:44:28;;;;;;;28.63;18.40;;;3.00;46.80;;;;;;5000757;28;20769;-74
2021/01/15 05:46:54;;;;;;;27.90;18.02;;;2.90;48.30;;;;;;5001591;28;20436;-73
2021/01/15 05:49:20;;;;;;;30.25;18.25;;;2.90;47.70;;;;;;4994896;28;20702;-73
2021/01/15 05:51:46;;;;;;;32.80;20.58;;;3.20;47.30;;;;;;5004829;28;20415;-73
2021/01/15 05:54:13;;;;;;;34.78;20.55;;;3.20;46.20;;;;;;5011837;28;20412;-73
2021/01/15 05:56:42;;;;;;;32.45;18.88;;;3.20;44.80;;;;;;5012231;28;20389;-73
2021/01/15 05:59:17;;;;;;;31.63;19.17;;;3.20;44.00;;;;;;5011908;28;20389;-73
2021/01/15 06:01:57;;;;;;;33.95;20.30;;;3.20;44.00;;;;;;5007638;28;20411;-73
2021/01/15 06:04:31;;;;;;;37.05;20.38;;;3.20;44.90;;;;;;5021796;28;20388;-74
2021/01/15 06:07:10;;;;;;;32.58;20.08;;;3.10;45.00;;;;;;5021285;28;20392;-72
2021/01/15 06:09:40;;;;;;;36.80;20.60;;;3.10;45.30;;;;;;5021133;28;20388;-74
2021/01/15 06:12:14;;;;;;;39.88;21.10;;;3.10;45.80;;;;;;5004900;28;20426;-74
2021/01/15 06:14:49;;;;;;;34.88;20.05;;;3.00;45.90;;;;;;5004698;28;20481;-73
2021/01/15 06:17:17;;;;;;;33.80;20.60;;;3.00;46.60;;;;;;5016760;28;20810;-75
2021/01/15 06:20:02;;;;;;;34.70;20.63;;;3.00;46.50;;;;;;4998279;28;20386;-74
2021/01/15 06:22:32;;;;;;;37.72;20.73;;;2.90;47.50;;;;;;4997670;28;20760;-74
2021/01/15 06:25:21;;;;;;;34.28;21.13;;;2.90;48.30;;;;;;4997911;28;20386;-74
2021/01/15 06:27:47;;;;;;;38.53;21.88;;;2.90;48.90;;;;;;4991646;28;20514;-74
2021/01/15 06:30:15;;;;;;;39.97;21.67;;;2.90;48.90;;;;;;5001676;28;20420;-75
2021/01/15 06:32:42;;;;;;;37.72;22.75;;;2.90;49.10;;;;;;4991464;28;20491;-74
2021/01/15 06:35:21;;;;;;;39.55;22.75;;;2.80;49.70;;;;;;4992061;28;20874;-73
2021/01/15 06:38:00;;;;;;;39.03;22.83;;;2.80;50.00;;;;;;4990321;28;20494;-75
2021/01/15 06:40:34;;;;;;;36.35;21.50;;;2.80;49.60;;;;;;4991850;28;20399;-72
2021/01/15 06:43:07;;;;;;;39.50;21.90;;;2.80;50.20;;;;;;5010810;28;20391;-73
2021/01/15 06:45:45;;;;;;;42.40;22.73;;;2.80;49.60;;;;;;5010417;28;20397;-74
2021/01/15 06:48:34;;;;;;;40.00;23.10;;;2.70;50.90;;;;;;5010658;28;20385;-73
2021/01/15 06:51:01;;;;;;;41.42;23.52;;;2.70;52.40;;;;;;4995689;28;20552;-74
2021/01/15 06:53:31;;;;;;;38.65;22.90;;;2.80;51.60;;;;;;4991347;28;20397;-74
2021/01/15 06:56:02;;;;;;;44.15;24.90;;;2.80;50.80;;;;;;5003847;28;20665;-73
2021/01/15 06:58:29;;;;;;;36.35;21.90;;;2.80;51.70;;;;;;5007865;28;20392;-73
2021/01/15 07:01:03;;;;;;;40.58;22.33;;;2.90;50.60;;;;;;5010663;28;20479;-73
2021/01/15 07:03:56;;;;;;;39.67;23.17;;;2.90;49.60;;;;;;5010755;28;20385;-73
2021/01/15 07:06:28;;;;;;;49.28;23.58;;;2.90;50.50;;;;;;5010696;28;20381;-73
2021/01/15 07:08:58;;;;;;;41.35;24.63;;;2.90;50.90;;;;;;4995611;28;20394;-74
2021/01/15 07:11:27;;;;;;;41.00;24.58;;;2.90;50.50;;;;;;4997715;28;20396;-73
2021/01/15 07:13:58;;;;;;;47.97;25.17;;;2.90;49.80;;;;;;5003626;28;20540;-74
2021/01/15 07:16:29;;;;;;;42.85;23.70;;;2.80;50.00;;;;;;4990142;28;20446;-74
2021/01/15 07:19:00;;;;;;;42.25;24.52;;;2.80;50.10;;;;;;5003737;28;20947;-73
2021/01/15 07:21:29;;;;;;;43.95;24.58;;;2.80;51.90;;;;;;4996534;28;20756;-74
2021/01/15 07:23:57;;;;;;;43.17;24.77;;;2.90;50.60;;;;;;4990873;28;20876;-73
2021/01/15 07:26:22;;;;;;;47.13;24.80;;;2.70;50.30;;;;;;4999590;28;20396;-73
2021/01/15 07:28:57;;;;;;;44.90;24.43;;;2.70;50.10;;;;;;4997988;28;20409;-74
2021/01/15 07:31:24;;;;;;;43.97;25.65;;;2.80;50.80;;;;;;4990958;28;20390;-74
2021/01/15 07:33:57;;;;;;;43.95;24.05;;;2.80;50.30;;;;;;4990815;28;20491;-72
2021/01/15 07:36:51;;;;;;;46.55;25.30;;;2.80;50.10;;;;;;4991050;28;20394;-71
2021/01/15 07:39:22;;;;;;;41.55;25.27;;;2.80;50.50;;;;;;4990590;28;20404;-70
2021/01/15 07:41:53;;;;;;;46.20;24.60;;;2.80;50.70;;;;;;5010878;28;20401;-72
2021/01/15 07:44:24;;;;;;;44.47;25.70;;;2.80;50.50;;;;;;5010616;28;20389;-71
2021/01/15 07:46:59;;;;;;;46.43;25.87;;;2.80;50.50;;;;;;4999379;28;20408;-72
2021/01/15 07:49:41;;;;;;;42.67;24.45;;;2.80;50.70;;;;;;5007559;28;20414;-72
2021/01/15 07:52:10;;;;;;;42.30;24.73;;;2.80;49.90;;;;;;5011369;28;20408;-72
2021/01/15 07:54:49;;;;;;;46.22;25.50;;;2.90;50.30;;;;;;5003517;28;20698;-71
2021/01/15 07:57:18;;;;;;;46.28;26.10;;;2.90;49.90;;;;;;5012234;28;20397;-71
2021/01/15 07:59:44;;;;;;;42.80;25.33;;;2.80;49.90;;;;;;5010517;28;20496;-71
2021/01/15 08:02:11;;;;;;;41.53;24.00;;;2.90;50.00;;;;;;5017384;28;21501;-71
2021/01/15 08:04:36;;;;;;;44.03;25.58;;;2.90;49.80;;;;;;5014294;28;20435;-75
2021/01/15 08:07:12;;;;;;;47.13;25.43;;;2.80;49.60;;;;;;5006216;28;20405;-73
2021/01/15 08:09:42;;;;;;;44.75;25.05;;;2.80;51.00;;;;;;5015056;28;20404;-75
2021/01/15 08:12:08;;;;;;;41.45;24.52;;;2.80;49.30;;;;;;5011632;28;20768;-73
2021/01/15 08:14:33;;;;;;;45.58;25.17;;;2.80;49.90;;;;;;5013700;28;20413;-73
2021/01/15 08:17:00;;;;;;;50.70;26.45;;;2.80;50.70;;;;;;5013977;28;20408;-75
2021/01/15 08:19:27;;;;;;;45.50;25.08;;;2.70;49.40;;;;;;5015093;28;20463;-73
2021/01/15 08:21:54;;;;;;;46.22;25.48;;;2.70;49.80;;;;;;5017354;28;20408;-73
2021/01/15 08:24:22;;;;;;;50.80;25.30;;;2.60;49.60;;;;;;5020045;28;20395;-74
2021/01/15 08:26:52;;;;;;;43.63;25.20;;;2.60;51.00;;;;;;5019145;28;21024;-74
2021/01/15 08:29:18;;;;;;;47.83;25.60;;;2.60;52.40;;;;;;5017627;28;20408;-74
2021/01/15 08:31:45;;;;;;;44.43;25.90;;;2.70;51.00;;;;;;5018088;28;20471;-75
2021/01/15 08:34:16;;;;;;;47.90;26.20;;;2.70;50.30;;;;;;5012175;28;20452;-75
2021/01/15 08:37:03;;;;;;;45.10;25.40;;;2.70;50.00;;;;;;5008081;28;20876;-73
2021/01/15 08:39:41;;;;;;;46.65;25.70;;;2.70;49.60;;;;;;4998895;28;20398;-74
2021/01/15 08:42:06;;;;;;;50.77;26.50;;;2.70;49.50;;;;;;5017034;28;20397;-74
2021/01/15 08:44:35;;;;;;;48.80;25.75;;;2.70;49.30;;;;;;5016865;28;20762;-74
2021/01/15 08:47:09;;;;;;;45.15;24.10;;;2.70;50.20;;;;;;5010257;28;20420;-73
2021/01/15 08:49:34;;;;;;;47.37;24.70;;;2.80;49.20;;;;;;5000728;28;20438;-74
2021/01/15 08:52:01;;;;;;;48.78;25.13;;;2.80;48.80;;;;;;5016472;28;20402;-72
2021/01/15 08:54:29;;;;;;;44.85;25.27;;;2.80;49.00;;;;;;5017865;28;20419;-74
2021/01/15 08:56:55;;;;;;;43.70;24.20;;;3.00;49.20;;;;;;5018264;28;20430;-74
2021/01/15 08:59:25;;;;;;;47.05;26.45;;;3.00;48.00;;;;;;5017002;28;20404;-74
2021/01/15 09:02:03;;;;;;;43.40;25.27;;;3.20;47.50;;;;;;5008903;28;20482;-72
2021/01/15 09:04:43;;;;;;;42.88;24.35;;;3.20;47.00;;;;;;5015177;28;20409;-73
2021/01/15 09:07:09;;;;;;;44.70;25.73;;;3.30;46.50;;;;;;5013754;28;20409;-73
2021/01/15 09:09:35;;;;;;;41.20;24.05;;;3.30;47.60;;;;;;5012934;28;20404;-72
2021/01/15 09:12:06;;;;;;;41.33;24.17;;;3.50;45.30;;;;;;5010701;28;20891;-76
2021/01/15 09:14:35;;;;;;;41.70;23.77;;;3.60;45.80;;;;;;5012725;28;20863;-71
2021/01/15 09:17:05;;;;;;;40.53;22.42;;;3.60;44.00;;;;;;5011861;28;20405;-72
2021/01/15 09:19:35;;;;;;;42.60;23.88;;;3.50;44.10;;;;;;5012287;28;20447;-71
2021/01/15 09:22:04;;;;;;;39.35;22.13;;;3.50;44.80;;;;;;5005973;28;20418;-73
2021/01/15 09:24:31;;;;;;;42.40;23.52;;;3.40;43.50;;;;;;5011712;28;20412;-72
2021/01/15 09:27:01;;;;;;;41.55;23.48;;;3.40;44.30;;;;;;5014095;28;20401;-71
2021/01/15 09:29:27;;;;;;;40.13;21.92;;;3.40;44.90;;;;;;5013170;28;20478;-72
2021/01/15 09:31:53;;;;;;;43.83;22.48;;;3.40;43.70;;;;;;5014951;28;20400;-72
2021/01/15 09:34:21;;;;;;;39.05;23.08;;;3.40;43.60;;;;;;5013303;28;20463;-72
2021/01/15 09:36:48;;;;;;;40.35;22.65;;;3.60;44.60;;;;;;5013880;28;20496;-72
2021/01/15 09:39:16;;;;;;;39.83;21.52;;;3.70;42.60;;;;;;5012957;28;20396;-73
2021/01/15 09:41:46;;;;;;;42.45;22.88;;;3.60;42.10;;;;;;5020847;28;20392;-73
2021/01/15 09:44:15;;;;;;;37.45;21.80;;;3.70;42.80;;;;;;5019922;28;20404;-71
2021/01/15 09:46:41;;;;;;;58.22;24.30;;;3.70;41.70;;;;;;5018137;28;20416;-72
2021/01/15 09:49:07;;;;;;;43.40;22.45;;;3.60;42.40;;;;;;5017823;28;20466;-73
2021/01/15 09:51:33;;;;;;;39.13;22.10;;;3.70;41.40;;;;;;5018541;28;20452;-72
2021/01/15 09:53:58;;;;;;;44.35;24.88;;;3.60;41.30;;;;;;5017716;28;20417;-73
2021/01/15 09:56:29;;;;;;;63.00;24.13;;;3.70;42.40;;;;;;5020079;28;20440;-72
2021/01/15 09:58:57;;;;;;;40.57;23.70;;;3.70;41.90;;;;;;5016218;28;20401;-73
2021/01/15 10:01:26;;;;;;;40.45;22.73;;;3.80;41.60;;;;;;5014492;28;20412;-73
2021/01/15 10:03:54;;;;;;;41.53;22.73;;;3.80;40.80;;;;;;5016688;28;20389;-74
2021/01/15 10:06:19;;;;;;;39.67;23.40;;;3.60;41.20;;;;;;5010712;28;20465;-73
2021/01/15 10:08:46;;;;;;;48.80;24.73;;;3.50;42.80;;;;;;5012426;28;20988;-74
2021/01/15 10:11:22;;;;;;;40.45;23.92;;;3.50;43.60;;;;;;5011254;28;20486;-74
2021/01/15 10:13:49;;;;;;;41.60;24.37;;;3.50;44.00;;;;;;5011526;28;20489;-74
2021/01/15 10:16:15;;;;;;;41.88;23.55;;;3.50;43.50;;;;;;5013754;28;20397;-74
2021/01/15 10:18:40;;;;;;;40.27;23.70;;;3.40;44.00;;;;;;5010731;28;21270;-74
2021/01/15 10:21:07;;;;;;;43.27;23.50;;;3.50;44.50;;;;;;5004973;28;20408;-73
2021/01/15 10:23:36;;;;;;;42.60;23.52;;;3.40;44.40;;;;;;5001088;28;20899;-75
2021/01/15 10:26:03;;;;;;;41.63;22.83;;;3.40;45.00;;;;;;5008083;28;20417;-74
2021/01/15 10:28:28;;;;;;;40.60;22.83;;;3.30;44.30;;;;;;5011411;28;20405;-75
2021/01/15 10:30:54;;;;;;;39.20;22.63;;;3.40;44.90;;;;;;5005711;28;20462;-74
2021/01/15 10:33:21;;;;;;;42.20;23.30;;;3.40;44.90;;;;;;5014307;28;20473;-73
2021/01/15 10:35:50;;;;;;;48.85;27.83;;;3.40;45.10;;;;;;5011598;28;20468;-74
2021/01/15 10:38:16;;;;;;;44.60;23.98;;;3.40;46.60;;;;;;5013470;28;20384;-73
2021/01/15 10:40:43;;;;;;;41.25;21.92;;;3.40;45.70;;;;;;5013370;28;20874;-72
2021/01/15 10:43:09;;;;;;;39.80;21.30;;;3.70;43.30;;;;;;5012436;28;20415;-73
2021/01/15 10:45:34;;;;;;;41.85;21.30;;;3.80;43.30;;;;;;5011612;28;20405;-74
2021/01/15 10:48:02;;;;;;;34.67;19.80;;;3.90;40.90;;;;;;5010013;28;20408;-73
2021/01/15 10:50:28;;;;;;;34.95;19.65;;;4.10;40.30;;;;;;5009268;28;20430;-73
2021/01/15 10:52:54;;;;;;;30.67;18.60;;;4.20;39.40;;;;;;5009816;28;20415;-73
2021/01/15 10:55:20;;;;;;;22.88;14.32;;;4.30;36.90;;;;;;5002945;28;20448;-75
2021/01/15 10:57:46;;;;;;;24.77;15.60;;;4.20;34.60;;;;;;5008900;28;20765;-71
2021/01/15 11:00:13;;;;;;;25.63;15.07;;;4.20;35.40;;;;;;5007927;28;20450;-72
2021/01/15 11:02:39;;;;;;;27.95;15.52;;;4.20;36.10;;;;;;5008278;28;20901;-73
2021/01/15 11:05:07;;;;;;;26.55;14.10;;;4.30;35.00;;;;;;5008857;28;20407;-72
2021/01/15 11:07:32;;;;;;;27.58;14.82;;;4.40;33.40;;;;;;5005217;28;20898;-72
2021/01/15 11:09:58;;;;;;;24.07;14.43;;;4.40;34.00;;;;;;4994651;28;20409;-71
2021/01/15 11:12:23;;;;;;;26.20;14.90;;;4.30;34.90;;;;;;5010766;28;20421;-72
2021/01/15 11:14:49;;;;;;;21.35;13.27;;;4.50;33.90;;;;;;5009589;28;20910;-72
2021/01/15 11:17:14;;;;;;;23.45;13.20;;;4.80;31.30;;;;;;5008005;28;20385;-72
2021/01/15 11:19:40;;;;;;;25.98;13.13;;;4.80;30.50;;;;;;5003168;28;20408;-73
2021/01/15 11:22:05;;;;;;;22.40;13.30;;;4.90;30.80;;;;;;5002244;28;20448;-72
2021/01/15 11:24:31;;;;;;;21.35;12.40;;;5.10;31.30;;;;;;5009741;28;20740;-72
2021/01/15 11:26:57;;;;;;;24.10;14.05;;;5.20;28.70;;;;;;5008653;28;20909;-72
2021/01/15 11:29:23;;;;;;;24.35;15.15;;;5.20;29.50;;;;;;5008772;28;20415;-71
2021/01/15 11:31:48;;;;;;;24.58;15.77;;;5.10;31.40;;;;;;5008803;28;20405;-72
2021/01/15 11:34:15;;;;;;;30.13;15.13;;;5.30;31.60;;;;;;5010308;28;20487;-73
2021/01/15 11:36:40;;;;;;;22.98;12.45;;;5.30;31.10;;;;;;5009676;28;20405;-72
2021/01/15 11:39:11;;;;;;;28.83;13.50;;;5.50;28.30;;;;;;5009531;28;20423;-72
2021/01/15 11:41:37;;;;;;;20.50;11.27;;;5.40;27.10;;;;;;5009171;28;20458;-72
2021/01/15 11:44:05;;;;;;;17.38;9.50;;;5.60;27.90;;;;;;5009482;28;20412;-73
2021/01/15 11:46:31;;;;;;;17.55;9.80;;;5.90;25.20;;;;;;5008184;28;20769;-72
2021/01/15 11:48:59;;;;;;;15.85;8.80;;;6.00;23.70;;;;;;5009612;28;20476;-73
2021/01/15 11:51:25;;;;;;;18.37;9.13;;;6.10;23.60;;;;;;5009583;28;20416;-75
2021/01/15 11:53:50;;;;;;;14.27;8.40;;;6.10;23.80;;;;;;5008152;28;20408;-71
2021/01/15 11:56:16;;;;;;;14.88;8.70;;;6.20;23.90;;;;;;5009791;28;20393;-71
2021/01/15 11:58:42;;;;;;;14.20;8.40;;;6.30;20.90;;;;;;5003471;28;20899;-71
2021/01/15 12:01:08;;;;;;;13.40;8.70;;;6.30;20.70;;;;;;5005458;28;20393;-71
2021/01/15 12:03:35;;;;;;;13.00;8.70;;;6.20;22.20;;;;;;5008358;28;20404;-71
2021/01/15 12:06:01;;;;;;;14.77;8.90;;;6.20;21.20;;;;;;5008322;28;20405;-71
2021/01/15 12:08:26;;;;;;;13.65;8.30;;;6.20;21.80;;;;;;5003236;28;20414;-71
2021/01/15 12:10:54;;;;;;;13.80;8.07;;;6.00;21.40;;;;;;4999886;28;20439;-72
2021/01/15 12:13:20;;;;;;;10.73;7.60;;;5.80;21.70;;;;;;5009816;28;20442;-71
2021/01/15 12:15:52;;;;;;;15.00;9.37;;;5.50;22.00;;;;;;5006016;28;20417;-71
2021/01/15 12:18:18;;;;;;;20.23;11.10;;;5.20;25.10;;;;;;5009398;28;20491;-71
2021/01/15 12:20:44;;;;;;;14.73;10.07;;;5.20;26.30;;;;;;5005410;28;20919;-69
2021/01/15 12:23:11;;;;;;;18.92;11.60;;;5.20;25.70;;;;;;5008551;28;20409;-72
2021/01/15 12:25:40;;;;;;;18.98;11.07;;;5.00;27.30;;;;;;5008741;28;20871;-71
2021/01/15 12:28:13;;;;;;;21.53;12.50;;;4.90;27.80;;;;;;5001825;28;20460;-69
2021/01/15 12:30:42;;;;;;;19.83;11.45;;;5.00;28.90;;;;;;5008110;28;20500;-71
2021/01/15 12:33:14;;;;;;;21.10;11.60;;;4.90;27.60;;;;;;5008656;28;20397;-72
2021/01/15 12:35:45;;;;;;;19.02;11.50;;;4.70;28.40;;;;;;5007883;28;20444;-71
2021/01/15 12:38:12;;;;;;;20.58;12.60;;;4.60;29.10;;;;;;5011398;28;20409;-71
2021/01/15 12:40:38;;;;;;;22.02;13.60;;;4.70;30.50;;;;;;5012688;28;20401;-70
2021/01/15 12:43:05;;;;;;;23.20;12.90;;;4.60;29.80;;;;;;5010790;28;20404;-72
2021/01/15 12:45:38;;;;;;;25.75;14.15;;;4.60;30.70;;;;;;5011623;28;20890;-72
2021/01/15 12:48:06;;;;;;;22.63;12.80;;;4.40;32.40;;;;;;5011830;28;20440;-69